Latest Weather Observations for Kowanyama

IDQ60801

Issued at 2:02 pm EST Sunday 5 July 2015 (issued every 30 minutes, with the page automatically refreshed every 10 minutes)

About weather observations | Map of weather stations | Latest weather observations for QLD | Other Formats
Station Details ID: 029038 Name: KOWANYAMA AIRPORT Lat: -15.48 Lon: 141.75 Height: 9.6 m
Data from the previous 72 hours. | See also: Recent months at Kowanyama
Date/Time
EST
Temp
°C
App
Temp
°C
Dew
Point
Rel
Hum
%
Delta-T
°C
Wind Press
QNH
hPa
Press
MSL
hPa
Rain
since 9 am
mm
Dir
 
Spd
km/h
Gust
km/h
Spd
kts
Gust
kts
05/02:00pm 30.2 28.7 10.7 30 11.2 SSE 9 17 5 9 1013.9 1013.9 0.0
05/01:30pm 30.5 29.4 10.5 29 11.4 NE 7 17 4 9 1014.5 1014.5 0.0
05/01:00pm 29.7 27.4 10.3 30 11.0 E 13 24 7 13 1015.1 1015.1 0.0
05/12:30pm 28.8 26.3 10.9 33 10.2 ESE 15 26 8 14 1015.6 1015.6 0.0
05/12:00pm 28.5 26.7 12.0 36 9.6 NE 13 24 7 13 1016.0 1016.0 0.0
05/11:30am 28.0 25.9 12.4 38 9.1 E 15 22 8 12 1016.3 1016.3 0.0
05/10:30am 26.5 24.8 14.6 48 7.1 ENE 17 26 9 14 1016.8 1016.8 0.0
05/10:00am 25.1 23.7 14.6 52 6.3 ENE 15 22 8 12 1017.0 1017.0 0.0
05/09:30am 24.0 22.9 15.2 58 5.3 ENE 15 28 8 15 1017.2 1017.2 0.0
05/09:00am 22.3 20.9 15.6 66 4.0 ENE 17 28 9 15 1017.1 1017.1 0.0
05/08:30am 20.8 20.5 15.4 71 3.2 ENE 11 17 6 9 1016.9 1016.9 0.0
05/08:00am 18.9 18.7 14.6 76 2.5 E 9 11 5 6 1016.8 1016.8 0.0
05/07:30am 17.4 17.4 14.3 82 1.8 E 7 9 4 5 1016.7 1016.7 0.0
05/07:00am 16.8 16.8 13.7 82 1.7 E 6 9 3 5 1016.4 1016.4 0.0
05/06:30am 16.9 17.0 13.8 82 1.8 E 6 9 3 5 1016.0 1016.0 0.0
05/05:30am 17.1 17.0 13.8 81 1.9 ENE 7 9 4 5 1015.6 1015.6 0.0
05/05:00am 16.5 16.4 13.4 82 1.7 ENE 6 7 3 4 1015.3 1015.3 0.0
05/04:30am 17.2 17.1 13.3 78 2.2 E 6 7 3 4 1015.2 1015.2 0.0
05/04:00am 17.9 17.8 13.2 74 2.6 ENE 6 7 3 4 1015.1 1015.1 0.0
05/03:30am 19.0 18.8 13.6 71 3.1 E 7 11 4 6 1015.1 1015.1 0.0
05/03:00am 18.8 18.6 13.6 72 3.0 E 7 9 4 5 1014.9 1014.9 0.0
05/02:30am 18.3 18.0 13.2 72 2.9 E 7 7 4 4 1015.0 1015.0 0.0
05/02:00am 18.3 18.0 13.2 72 2.9 SE 7 9 4 5 1015.1 1015.1 0.0
05/01:30am 18.8 18.5 13.4 71 3.1 ESE 7 11 4 6 1015.4 1015.4 0.0
05/01:00am 18.3 19.4 13.4 73 2.8 CALM 0 0 0 0 1015.5 1015.5 0.0
05/12:30am 19.8 19.8 13.7 68 3.5 ESE 6 9 3 5 1015.4 1015.4 0.0
 
Date/Time
EST
Temp
°C
App
Temp
°C
Dew
Point
Rel
Hum
%
Delta-T
°C
Wind Press
QNH
hPa
Press
MSL
hPa
Rain
since 9 am
mm
Dir
 
Spd
km/h
Gust
km/h
Spd
kts
Gust
kts
04/11:30pm 20.5 20.4 13.9 66 3.8 S 7 9 4 5 1015.0 1015.0 0.0
04/11:00pm 20.7 20.3 14.1 66 3.8 SSW 9 13 5 7 1015.0 1015.0 0.0
04/10:30pm 20.8 20.6 14.7 68 3.6 S 9 13 5 7 1015.0 1015.0 0.0
04/10:00pm 21.1 21.0 15.0 68 3.6 SSW 9 15 5 8 1015.0 1015.0 0.0
04/09:30pm 21.5 21.5 15.1 67 3.8 SSW 9 11 5 6 1014.7 1014.7 0.0
04/09:00pm 21.9 21.8 15.0 65 4.1 SSW 9 11 5 6 1014.6 1014.6 0.0
04/08:30pm 22.0 22.5 14.9 64 4.2 SW 6 9 3 5 1014.6 1014.6 0.0
04/08:00pm 22.7 23.0 15.0 61 4.6 SW 7 9 4 5 1014.3 1014.3 0.0
04/07:30pm 23.7 23.6 14.9 57 5.2 SW 9 13 5 7 1013.9 1013.9 0.0
04/07:00pm 24.9 24.7 14.7 53 6.1 WSW 9 13 5 7 1013.6 1013.6 0.0
04/06:30pm 25.7 25.1 12.2 43 7.8 S 7 9 4 5 1013.1 1013.1 0.0
04/06:00pm 28.4 26.8 10.1 32 10.3 SSE 9 13 5 7 1012.8 1012.8 0.0
04/05:30pm 29.1 27.1 10.3 31 10.6 ESE 11 15 6 8 1012.4 1012.4 0.0
04/05:00pm 29.9 28.6 9.9 29 11.3 E 7 13 4 7 1012.1 1012.1 0.0
04/04:30pm 29.8 27.4 9.9 29 11.2 ESE 13 20 7 11 1012.1 1012.1 0.0
04/04:00pm 29.9 28.0 10.5 30 11.1 ESE 11 17 6 9 1012.2 1012.2 0.0
04/03:30pm 29.8 27.9 10.4 30 11.0 SE 11 20 6 11 1012.3 1012.3 0.0
04/03:00pm 30.5 28.7 11.0 30 11.2 SE 11 20 6 11 1012.6 1012.6 0.0
04/02:30pm 30.2 28.4 10.7 30 11.2 ESE 11 20 6 11 1012.9 1012.9 0.0
04/02:00pm 29.6 28.3 11.2 32 10.6 E 9 19 5 10 1013.3 1013.3 0.0
04/01:30pm 29.0 27.3 11.1 33 10.3 ESE 11 20 6 11 1013.9 1013.9 0.0
04/01:00pm 28.7 27.5 11.7 35 9.8 ESE 9 20 5 11 1014.5 1014.5 0.0
04/12:30pm 28.3 26.8 11.8 36 9.5 E 11 20 6 11 1015.0 1015.0 0.0
04/12:00pm 28.2 27.5 13.3 40 8.8 ESE 9 22 5 12 1015.6 1015.6 0.0
04/11:30am 26.7 25.3 13.4 43 7.8 E 13 19 7 10 1016.0 1016.0 0.0
04/11:00am 26.4 25.7 14.2 47 7.3 E 11 17 6 9 1016.3 1016.3 0.0
04/10:30am 25.2 24.1 14.3 50 6.5 ENE 13 20 7 11 1016.7 1016.7 0.0
04/10:00am 24.4 23.1 14.8 55 5.7 ENE 15 20 8 11 1016.9 1016.9 0.0
04/09:30am 23.2 22.2 14.7 58 5.0 ENE 13 20 7 11 1016.9 1016.9 0.0
04/09:00am 22.2 22.2 15.3 65 4.1 NE 9 17 5 9 1016.8 1016.8 0.0
04/08:30am 20.2 21.0 15.8 76 2.6 ENE 6 9 3 5 1016.7 1016.7 0.0
04/08:00am 16.1 17.6 14.6 91 0.9 CALM 0 0 0 0 1016.4 1016.4 0.0
04/07:30am 14.6 15.8 13.8 95 0.4 CALM 0 0 0 0 1016.0 1016.0 0.0
04/07:00am 14.0 15.0 13.1 94 0.5 CALM 0 6 0 3 1015.7 1015.7 0.0
04/06:30am 14.5 15.6 13.5 94 0.6 CALM 0 0 0 0 1015.7 1015.7 0.0
04/06:00am 14.6 15.7 13.5 93 0.6 CALM 0 0 0 0 1015.4 1015.4 0.0
04/05:30am 14.9 16.0 13.6 92 0.7 CALM 0 0 0 0 1015.3 1015.3 0.0
04/05:00am 15.3 16.6 14.2 93 0.6 CALM 0 0 0 0 1015.3 1015.3 0.0
04/04:30am 15.5 16.8 14.2 92 0.7 CALM 0 0 0 0 1015.2 1015.2 0.0
04/04:00am 15.6 17.0 14.3 92 0.7 CALM 0 2 0 1 1015.2 1015.2 0.0
04/03:30am 16.2 17.8 14.9 92 0.7 CALM 0 0 0 0 1015.2 1015.2 0.0
04/03:00am 16.6 18.3 15.1 91 0.9 CALM 0 0 0 0 1015.1 1015.1 0.0
04/02:30am 16.8 18.0 14.8 88 1.2 NNE 2 6 1 3 1015.4 1015.4 0.0
04/02:00am 17.8 18.2 15.4 86 1.4 ENE 7 9 4 5 1015.6 1015.6 0.0
04/01:30am 18.3 18.4 16.6 90 1.0 ENE 11 17 6 9 1015.6 1015.6 0.0
04/01:00am 17.6 17.6 16.3 92 0.8 NE 11 15 6 8 1015.3 1015.3 0.0
04/12:30am 18.4 19.3 16.6 89 1.1 S 7 9 4 5 1015.2 1015.2 0.0
04/12:00am 18.7 19.6 16.7 88 1.2 S 7 9 4 5 1015.4 1015.4 0.0
 
Date/Time
EST
Temp
°C
App
Temp
°C
Dew
Point
Rel
Hum
%
Delta-T
°C
Wind Press
QNH
hPa
Press
MSL
hPa
Rain
since 9 am
mm
Dir
 
Spd
km/h
Gust
km/h
Spd
kts
Gust
kts
03/11:30pm 18.9 19.5 16.7 87 1.3 S 9 13 5 7 1015.6 1015.6 0.0
03/11:00pm 19.2 20.2 16.8 86 1.4 S 7 11 4 6 1015.8 1015.8 0.0
03/10:30pm 19.6 20.7 17.0 85 1.6 SSW 7 11 4 6 1016.0 1016.0 0.0
03/10:00pm 20.1 20.7 16.9 82 1.9 SSW 9 11 5 6 1016.0 1016.0 0.0
03/09:30pm 20.7 21.4 17.1 80 2.2 SSW 9 13 5 7 1015.9 1015.9 0.0
03/09:00pm 21.1 21.5 17.3 79 2.3 SSW 11 17 6 9 1015.8 1015.8 0.0
03/08:30pm 21.4 21.8 17.2 77 2.6 SSW 11 15 6 8 1015.7 1015.7 0.0
03/08:00pm 21.8 22.5 17.0 74 2.9 SW 9 13 5 7 1015.5 1015.5 0.0
03/07:30pm 22.2 22.8 16.7 71 3.4 SW 9 13 5 7 1015.2 1015.2 0.0
03/07:00pm 23.1 22.8 16.4 66 4.1 WSW 13 20 7 11 1014.7 1014.7 0.0
03/06:30pm 23.9 23.1 16.2 62 4.7 WSW 15 20 8 11 1014.4 1014.4 0.0
03/06:00pm 25.2 23.3 15.2 54 6.0 WSW 19 24 10 13 1013.9 1013.9 0.0
03/05:30pm 26.9 26.4 15.0 48 7.2 SW 11 17 6 9 1013.5 1013.5 0.0
03/05:00pm 28.7 26.1 9.4 30 10.7 SSE 13 17 7 9 1013.1 1013.1 0.0
03/04:30pm 29.1 26.8 10.3 31 10.6 S 13 20 7 11 1013.0 1013.0 0.0
03/04:00pm 29.5 26.7 10.1 30 11.0 SE 15 24 8 13 1013.0 1013.0 0.0
03/03:30pm 29.0 26.1 9.7 30 10.8 SE 15 20 8 11 1013.2 1013.2 0.0
03/03:00pm 29.0 26.6 10.2 31 10.6 SE 13 19 7 10 1013.5 1013.5 0.0
03/02:30pm 29.4 27.1 10.5 31 10.7 SE 13 24 7 13 1013.8 1013.8 0.0
03/02:00pm 29.7 28.0 11.2 31 10.6 NE 11 20 6 11 1014.2 1014.2 0.0
03/01:30pm 29.0 26.0 10.6 32 10.5 SE 17 26 9 14 1014.7 1014.7 0.0
03/01:00pm 28.4 25.6 11.5 35 9.7 SSE 17 24 9 13 1015.1 1015.1 0.0
03/12:30pm 28.0 25.6 11.5 35 9.5 ESE 15 32 8 17 1015.6 1015.6 0.0
03/12:00pm 27.9 25.9 12.7 39 8.9 ESE 15 20 8 11 1016.1 1016.1 0.0
03/11:30am 27.6 25.8 13.2 41 8.5 E 15 24 8 13 1016.7 1016.7 0.0
03/11:00am 26.2 24.1 13.7 46 7.4 ESE 17 28 9 15 1017.0 1017.0 0.0
03/10:30am 25.5 23.6 14.3 50 6.7 E 17 22 9 12 1017.2 1017.2 0.0
03/10:00am 24.8 23.6 15.1 54 5.8 E 15 24 8 13 1017.4 1017.4 0.0
03/09:30am 24.0 22.7 15.8 60 5.0 ENE 17 28 9 15 1017.5 1017.5 0.0
03/09:00am 23.0 23.5 16.5 67 4.0 ENE 9 19 5 10 1017.5 1017.5 0.0
03/08:30am 20.9 21.7 15.9 73 3.0 SE 6 7 3 4 1017.5 1017.5 0.0
03/08:00am 17.8 19.5 15.2 85 1.5 CALM 0 0 0 0 1017.2 1017.2 0.0
03/07:30am 16.0 16.2 14.2 89 1.0 SE 6 7 3 4 1016.9 1016.9 0.0
03/07:00am 15.6 16.9 14.0 90 0.9 CALM 0 0 0 0 1016.5 1016.5 0.0
03/06:30am 15.7 16.8 13.5 87 1.2 CALM 0 0 0 0 1016.1 1016.1 0.0
03/06:00am 16.2 17.4 13.9 86 1.3 CALM 0 0 0 0 1016.1 1016.1 0.0
03/05:30am 16.6 17.9 14.2 86 1.4 CALM 0 0 0 0 1016.0 1016.0 0.0
03/05:00am 16.9 18.3 14.4 85 1.4 CALM 0 0 0 0 1015.9 1015.9 0.0
03/04:30am 17.3 18.6 14.2 82 1.8 CALM 0 0 0 0 1016.0 1016.0 0.0
03/04:00am 17.8 18.0 14.3 80 2.0 NE 6 7 3 4 1015.9 1015.9 0.0
03/03:30am 18.2 18.5 14.5 79 2.1 ENE 6 7 3 4 1015.8 1015.8 0.0
03/03:00am 18.4 18.9 14.1 76 2.5 E 4 7 2 4 1015.9 1015.9 0.0
03/02:30am 19.4 19.8 13.8 70 3.2 SE 4 7 2 4 1016.1 1016.1 0.0
03/02:00am 20.4 20.8 13.6 65 3.9 ESE 4 6 2 3 1016.4 1016.4 0.0
03/01:30am 21.3 21.3 13.7 62 4.4 E 6 9 3 5 1016.5 1016.5 0.0
03/01:00am 21.7 21.4 13.3 59 4.8 E 7 13 4 7 1016.7 1016.7 0.0
03/12:30am 22.2 21.6 13.5 57 5.0 ESE 9 15 5 8 1016.8 1016.8 0.0
03/12:00am 19.2 19.6 14.7 75 2.6 SSW 6 9 3 5 1016.0 1016.0 0.0
 
Date/Time
EST
Temp
°C
App
Temp
°C
Dew
Point
Rel
Hum
%
Delta-T
°C
Wind Press
QNH
hPa
Press
MSL
hPa
Rain
since 9 am
mm
Dir
 
Spd
km/h
Gust
km/h
Spd
kts
Gust
kts
02/11:30pm 19.5 20.1 15.4 77 2.4 SSW 6 7 3 4 1016.2 1016.2 0.0
02/11:00pm 20.1 20.8 15.5 75 2.7 SSW 6 7 3 4 1016.6 1016.6 0.0
02/10:30pm 20.7 22.1 15.3 71 3.2 SSW 2 6 1 3 1016.7 1016.7 0.0
02/10:00pm 21.5 21.6 15.6 69 3.5 SSW 9 11 5 6 1016.7 1016.7 0.0
02/09:30pm 22.0 22.4 15.4 66 3.9 SSW 7 9 4 5 1016.7 1016.7 0.0
02/09:00pm 22.7 22.7 15.3 63 4.4 SSW 9 11 5 6 1016.5 1016.5 0.0
02/08:30pm 23.5 23.2 15.5 60 4.8 SSW 11 15 6 8 1016.3 1016.3 0.0
02/08:00pm 24.0 23.7 15.5 59 5.1 SW 11 15 6 8 1016.1 1016.1 0.0
02/07:30pm 24.7 23.7 14.5 53 6.1 SW 13 15 7 8 1015.7 1015.7 0.0
02/07:00pm 26.5 25.3 10.2 36 9.1 S 7 9 4 5 1015.2 1015.2 0.0
02/06:30pm 28.0 26.3 9.8 32 10.2 SSE 9 11 5 6 1014.8 1014.8 0.0
02/06:00pm 29.6 26.7 9.7 29 11.2 SE 15 20 8 11 1014.5 1014.5 0.0
02/05:30pm 30.1 26.4 9.6 28 11.5 SSE 19 24 10 13 1014.2 1014.2 0.0
02/05:00pm 31.0 27.6 9.3 26 12.2 ESE 17 26 9 14 1014.0 1014.0 0.0
02/04:30pm 31.0 27.8 9.8 27 12.0 SSE 17 30 9 16 1014.0 1014.0 0.0
02/04:00pm 31.9 28.2 10.0 26 12.5 SSE 20 28 11 15 1014.0 1014.0 0.0
02/03:30pm 31.1 27.5 9.9 27 12.0 SE 19 28 10 15 1014.1 1014.1 0.0
02/03:00pm 31.5 27.8 10.2 27 12.2 SE 20 32 11 17 1014.4 1014.4 0.0
02/02:30pm 31.1 28.8 10.4 28 11.8 S 13 20 7 11 1014.8 1014.8 0.0

Other Formats:

Comma delimited format used in spreadsheet applications
http://www.bom.gov.au/fwo/IDQ60801/IDQ60801.94268.axf

JavaScript Object Notation format (JSON) in row-major order
http://www.bom.gov.au/fwo/IDQ60801/IDQ60801.94268.json